Time;durP1;ratioP1;P1;durP2;ratioP2;P2;SDS_P1;SDS_P2;PMS_P1;PMS_P2;Temp;Humidity;BMP_temperature;BMP_pressure;BME280_temperature;BME280_humidity;BME280_pressure;Samples;Min_cycle;Max_cycle;Signal;HPM_P1;HPM_P2
2023/06/28 00:01:08;;;;;;;4.30;1.70;;;22.00;43.70;;;;;;6187513;23;20008;-74
2023/06/28 00:03:34;;;;;;;3.80;1.80;;;21.90;44.80;;;;;;6161589;23;20055;-73
2023/06/28 00:05:59;;;;;;;2.45;1.42;;;21.80;44.70;;;;;;6161735;23;20000;-73
2023/06/28 00:08:25;;;;;;;2.00;1.30;;;21.80;45.30;;;;;;6187758;23;20346;-74
2023/06/28 00:10:51;;;;;;;2.92;1.42;;;21.80;45.40;;;;;;6160901;23;20011;-74
2023/06/28 00:13:17;;;;;;;2.75;1.92;;;21.80;45.40;;;;;;6188380;23;19999;-74
2023/06/28 00:15:44;;;;;;;2.10;1.40;;;21.90;45.60;;;;;;6188125;23;19993;-74
2023/06/28 00:18:09;;;;;;;2.85;1.63;;;21.90;45.30;;;;;;6160711;23;20064;-74
2023/06/28 00:20:35;;;;;;;5.10;1.67;;;21.90;45.10;;;;;;6185550;23;20051;-73
2023/06/28 00:23:01;;;;;;;4.38;1.70;;;21.80;48.50;;;;;;6187717;23;20425;-73
2023/06/28 00:25:30;;;;;;;2.17;1.52;;;21.80;46.90;;;;;;6161313;23;20032;-73
2023/06/28 00:27:55;;;;;;;7.65;1.98;;;21.70;47.40;;;;;;6187830;23;20283;-73
2023/06/28 00:30:21;;;;;;;7.00;1.95;;;21.70;47.90;;;;;;6187730;23;19999;-73
2023/06/28 00:32:47;;;;;;;4.28;1.83;;;21.50;47.60;;;;;;6161701;23;19993;-74
2023/06/28 00:35:15;;;;;;;4.22;1.88;;;21.40;47.60;;;;;;6187586;23;20020;-74
2023/06/28 00:37:41;;;;;;;3.80;1.92;;;21.20;48.30;;;;;;6187865;23;19993;-74
2023/06/28 00:40:08;;;;;;;2.17;1.50;;;21.10;49.40;;;;;;6160405;23;20020;-74
2023/06/28 00:42:34;;;;;;;2.40;1.45;;;21.00;50.20;;;;;;6187608;23;20039;-74
2023/06/28 00:45:00;;;;;;;3.20;1.80;;;21.00;50.10;;;;;;6187351;23;19993;-74
2023/06/28 00:47:28;;;;;;;3.17;1.50;;;20.90;50.40;;;;;;6160916;23;19997;-74
2023/06/28 00:49:55;;;;;;;4.43;1.75;;;21.00;50.30;;;;;;6186929;23;20001;-74
2023/06/28 00:52:32;;;;;;;1.75;1.45;;;20.90;50.70;;;;;;6187827;23;20000;-73
2023/06/28 00:55:00;;;;;;;3.22;1.45;;;20.90;50.50;;;;;;6187174;23;20544;-74
2023/06/28 00:57:31;;;;;;;3.70;1.70;;;20.90;50.20;;;;;;6187172;23;20421;-74
2023/06/28 01:00:08;;;;;;;2.45;1.65;;;20.90;51.20;;;;;;6161097;23;20397;-74
2023/06/28 01:02:44;;;;;;;4.90;1.80;;;20.80;51.10;;;;;;6187825;23;19997;-74
2023/06/28 01:05:16;;;;;;;3.80;1.63;;;20.80;51.80;;;;;;6187725;23;19997;-73
2023/06/28 01:07:43;;;;;;;5.13;1.17;;;20.80;51.30;;;;;;6161997;23;20063;-74
2023/06/28 01:10:09;;;;;;;6.45;1.70;;;20.70;51.10;;;;;;6187489;23;20079;-74
2023/06/28 01:12:41;;;;;;;3.88;1.60;;;20.70;52.00;;;;;;6187427;23;19997;-73
2023/06/28 01:15:07;;;;;;;3.35;1.67;;;20.70;52.00;;;;;;6187169;23;19997;-74
2023/06/28 01:17:38;;;;;;;2.92;1.33;;;20.70;51.70;;;;;;6186733;23;20096;-74
2023/06/28 01:20:05;;;;;;;2.67;1.25;;;20.60;51.60;;;;;;6160146;23;19997;-74
2023/06/28 01:22:41;;;;;;;3.33;1.30;;;20.60;51.20;;;;;;6160298;23;20001;-73
2023/06/28 01:25:12;;;;;;;2.97;1.38;;;20.60;52.10;;;;;;6160824;23;20001;-73
2023/06/28 01:27:44;;;;;;;2.40;1.50;;;20.50;52.00;;;;;;6187196;23;20000;-73
2023/06/28 01:30:12;;;;;;;2.53;1.13;;;20.50;52.30;;;;;;6186248;23;20436;-74
2023/06/28 01:32:43;;;;;;;1.63;1.20;;;20.40;51.90;;;;;;6187599;23;19997;-74
2023/06/28 01:35:14;;;;;;;3.53;1.15;;;20.40;51.70;;;;;;6187369;23;20067;-74
2023/06/28 01:37:46;;;;;;;3.10;1.25;;;20.40;51.70;;;;;;6160721;23;20001;-74
2023/06/28 01:40:13;;;;;;;4.88;1.55;;;20.40;51.20;;;;;;6187666;23;20001;-73
2023/06/28 01:42:42;;;;;;;1.38;0.95;;;20.30;51.40;;;;;;6161435;23;20028;-73
2023/06/28 01:45:12;;;;;;;2.40;1.00;;;20.30;51.10;;;;;;6186449;23;20059;-74
2023/06/28 01:47:43;;;;;;;5.05;1.00;;;20.30;51.30;;;;;;6186625;23;20440;-73
2023/06/28 01:50:15;;;;;;;1.55;0.80;;;20.20;52.10;;;;;;6186582;23;20063;-73
2023/06/28 01:52:46;;;;;;;0.80;0.70;;;20.20;52.30;;;;;;6160199;23;20074;-74
2023/06/28 01:55:15;;;;;;;1.52;1.00;;;20.10;51.60;;;;;;6186768;23;20313;-74
2023/06/28 01:57:46;;;;;;;1.70;1.23;;;20.10;51.90;;;;;;6187145;23;20353;-73
2023/06/28 02:00:15;;;;;;;1.38;0.90;;;20.00;51.90;;;;;;6160955;23;20001;-73
2023/06/28 02:02:52;;;;;;;1.20;1.00;;;20.00;52.40;;;;;;6186723;23;20452;-73
2023/06/28 02:05:21;;;;;;;1.45;1.10;;;20.00;52.40;;;;;;6187014;23;20008;-74
2023/06/28 02:07:47;;;;;;;2.88;1.35;;;20.00;52.40;;;;;;6160438;23;19997;-73
2023/06/28 02:10:22;;;;;;;2.63;1.17;;;20.00;52.60;;;;;;6161016;23;20005;-74
2023/06/28 02:12:47;;;;;;;4.90;1.10;;;20.00;52.90;;;;;;6187209;23;20000;-74
2023/06/28 02:15:14;;;;;;;2.13;1.20;;;20.00;52.90;;;;;;6186463;23;20067;-73
2023/06/28 02:17:50;;;;;;;1.63;1.30;;;20.00;53.20;;;;;;6160089;23;19997;-74
2023/06/28 02:20:21;;;;;;;3.25;1.20;;;20.00;53.30;;;;;;6186175;23;20003;-74
2023/06/28 02:22:52;;;;;;;2.35;1.13;;;19.90;52.70;;;;;;6186161;23;19997;-74
2023/06/28 02:25:23;;;;;;;1.35;0.93;;;20.00;52.90;;;;;;6160052;23;19997;-73
2023/06/28 02:27:54;;;;;;;1.70;1.35;;;19.90;53.00;;;;;;6186754;23;20001;-74
2023/06/28 02:30:20;;;;;;;2.35;1.50;;;19.90;53.20;;;;;;6186492;23;20008;-73
2023/06/28 02:32:51;;;;;;;3.42;1.13;;;19.90;53.20;;;;;;6186955;23;19997;-74
2023/06/28 02:35:22;;;;;;;3.72;1.75;;;19.90;53.50;;;;;;6186785;23;19993;-74
2023/06/28 02:37:53;;;;;;;7.03;1.67;;;19.90;53.50;;;;;;6161093;23;20301;-74
2023/06/28 02:40:19;;;;;;;2.40;1.05;;;19.80;54.30;;;;;;6186608;23;20059;-74
2023/06/28 02:42:51;;;;;;;1.63;0.98;;;19.80;53.80;;;;;;6159449;23;20317;-74
2023/06/28 02:45:25;;;;;;;2.58;1.20;;;19.80;53.80;;;;;;6159895;23;20007;-74
2023/06/28 02:47:56;;;;;;;;;;;19.80;53.60;;;;;;6161162;23;20116;-74
2023/06/28 02:50:24;;;;;;;1.08;0.80;;;19.80;52.70;;;;;;6160844;23;20149;-73
2023/06/28 02:52:49;;;;;;;1.95;1.20;;;19.80;53.40;;;;;;6160334;23;20008;-74
2023/06/28 02:55:20;;;;;;;2.50;1.30;;;19.80;53.40;;;;;;6186291;23;20406;-74
2023/06/28 02:57:52;;;;;;;1.50;0.95;;;19.80;54.20;;;;;;6186295;23;19993;-74
2023/06/28 03:00:18;;;;;;;3.92;1.10;;;19.70;53.90;;;;;;6185637;23;19997;-73
2023/06/28 03:02:49;;;;;;;2.10;1.38;;;19.70;53.90;;;;;;6160033;23;20008;-74
2023/06/28 03:05:21;;;;;;;2.10;1.10;;;19.70;55.10;;;;;;6185972;23;20080;-73
2023/06/28 03:07:52;;;;;;;5.40;1.58;;;19.70;54.90;;;;;;6186911;23;19989;-73
2023/06/28 03:10:23;;;;;;;2.22;1.25;;;19.70;54.80;;;;;;6187828;23;19997;-73
2023/06/28 03:12:53;;;;;;;2.03;1.30;;;19.60;54.40;;;;;;6186619;23;20005;-73
2023/06/28 03:15:20;;;;;;;1.60;1.20;;;19.60;54.20;;;;;;6185843;23;20363;-73
2023/06/28 03:17:46;;;;;;;4.68;1.13;;;19.60;54.10;;;;;;6185561;23;19997;-73
2023/06/28 03:20:12;;;;;;;1.63;1.10;;;19.60;54.10;;;;;;6159314;23;20117;-74
2023/06/28 03:22:38;;;;;;;1.70;1.20;;;19.60;54.10;;;;;;6186669;23;20001;-73
2023/06/28 03:25:04;;;;;;;1.92;1.25;;;19.60;54.00;;;;;;6186739;23;20000;-73
2023/06/28 03:27:30;;;;;;;4.60;1.40;;;19.60;54.40;;;;;;6160682;23;20008;-73
2023/06/28 03:30:01;;;;;;;6.18;1.27;;;19.60;54.50;;;;;;6185627;23;20001;-73
2023/06/28 03:32:32;;;;;;;5.40;1.50;;;19.50;54.50;;;;;;6186505;23;20001;-73
2023/06/28 03:34:58;;;;;;;2.40;1.20;;;19.50;54.90;;;;;;6186043;23;19997;-73
2023/06/28 03:37:23;;;;;;;2.42;1.55;;;19.50;54.60;;;;;;6186163;23;19997;-73
2023/06/28 03:39:59;;;;;;;2.42;1.45;;;19.50;55.40;;;;;;6186271;23;20005;-73
2023/06/28 03:42:30;;;;;;;3.10;1.35;;;19.50;54.80;;;;;;6160039;23;20071;-73
2023/06/28 03:44:55;;;;;;;2.38;1.42;;;19.50;54.80;;;;;;6186222;23;19997;-73
2023/06/28 03:47:21;;;;;;;1.55;1.30;;;19.50;54.90;;;;;;6159841;23;19997;-73
2023/06/28 03:49:52;;;;;;;1.65;1.20;;;19.50;54.70;;;;;;6186614;23;20063;-73
2023/06/28 03:52:18;;;;;;;2.90;1.20;;;19.50;54.90;;;;;;6185881;23;20001;-73
2023/06/28 03:54:49;;;;;;;2.67;1.35;;;19.50;54.90;;;;;;6160506;23;19997;-73
2023/06/28 03:57:34;;;;;;;2.88;1.50;;;19.50;55.00;;;;;;6187443;23;19989;-73
2023/06/28 04:00:10;;;;;;;1.50;1.02;;;19.50;55.10;;;;;;6187352;23;20429;-73
2023/06/28 04:02:41;;;;;;;1.92;1.10;;;19.40;55.00;;;;;;6160338;23;20001;-74
2023/06/28 04:05:07;;;;;;;1.88;1.10;;;19.40;55.10;;;;;;6161565;23;19993;-73
2023/06/28 04:07:33;;;;;;;1.98;1.23;;;19.40;55.10;;;;;;6162149;23;20001;-73
2023/06/28 04:09:59;;;;;;;2.10;1.42;;;19.40;55.00;;;;;;6161082;23;20005;-73
2023/06/28 04:12:25;;;;;;;5.07;1.17;;;19.40;55.00;;;;;;6187763;23;20052;-73
2023/06/28 04:14:50;;;;;;;1.58;1.23;;;19.40;55.10;;;;;;6187349;23;19993;-73
2023/06/28 04:17:16;;;;;;;3.50;1.48;;;19.40;55.10;;;;;;6187168;23;19997;-73
2023/06/28 04:19:43;;;;;;;2.75;1.20;;;19.40;55.20;;;;;;6160909;23;20001;-73
2023/06/28 04:22:09;;;;;;;3.05;1.70;;;19.40;55.40;;;;;;6187222;23;20006;-72
2023/06/28 04:24:40;;;;;;;1.85;1.27;;;19.40;55.30;;;;;;6188072;23;20061;-73
2023/06/28 04:27:11;;;;;;;1.70;1.23;;;19.40;55.50;;;;;;6161368;23;20007;-73
2023/06/28 04:29:37;;;;;;;2.08;1.30;;;19.30;55.60;;;;;;6187643;23;19997;-72
2023/06/28 04:32:23;;;;;;;2.03;1.27;;;19.30;55.60;;;;;;6187193;23;19997;-73
2023/06/28 04:34:52;;;;;;;7.68;1.40;;;19.40;55.50;;;;;;6186511;23;20051;-73
2023/06/28 04:37:40;;;;;;;3.75;1.40;;;19.40;55.70;;;;;;6187030;23;20072;-73
2023/06/28 04:40:11;;;;;;;4.28;1.50;;;19.40;55.60;;;;;;6160395;23;20004;-73
2023/06/28 04:42:43;;;;;;;2.90;1.52;;;19.40;55.40;;;;;;6187232;23;19997;-73
2023/06/28 04:45:12;;;;;;;2.80;1.38;;;19.50;55.30;;;;;;6187476;23;19993;-73
2023/06/28 04:47:38;;;;;;;1.25;1.00;;;19.50;55.20;;;;;;6187421;23;20047;-73
2023/06/28 04:50:04;;;;;;;1.30;1.20;;;19.50;55.00;;;;;;6160684;23;20056;-73
2023/06/28 04:52:33;;;;;;;2.20;1.20;;;19.50;54.80;;;;;;6160860;23;20028;-73
2023/06/28 04:54:59;;;;;;;5.30;1.60;;;19.50;54.80;;;;;;6161037;23;20001;-73
2023/06/28 04:57:27;;;;;;;2.17;1.35;;;19.60;54.90;;;;;;6187326;23;20024;-73
2023/06/28 04:59:55;;;;;;;1.73;1.30;;;19.60;54.90;;;;;;6160544;23;20401;-73
2023/06/28 05:02:31;;;;;;;2.00;1.40;;;19.70;55.30;;;;;;6186585;23;20429;-73
2023/06/28 05:04:57;;;;;;;2.28;1.50;;;19.70;55.50;;;;;;6187534;23;19993;-73
2023/06/28 05:18:20;;;;;;;3.63;1.52;;;20.30;55.30;;;;;;6186416;23;20043;-74
2023/06/28 05:20:46;;;;;;;1.88;1.30;;;20.40;55.10;;;;;;6185617;23;20004;-73
2023/06/28 05:23:22;;;;;;;4.40;1.88;;;20.40;54.90;;;;;;6186566;23;19997;-73
2023/06/28 05:25:47;;;;;;;2.42;1.50;;;20.40;54.70;;;;;;6160080;23;20108;-73
2023/06/28 05:28:16;;;;;;;1.92;1.05;;;20.50;54.40;;;;;;6159494;23;20028;-70
2023/06/28 05:30:43;;;;;;;2.15;1.15;;;20.50;54.20;;;;;;6159096;23;20476;-74
2023/06/28 05:33:10;;;;;;;1.33;1.20;;;20.50;54.20;;;;;;6186360;23;20001;-74
2023/06/28 05:35:39;;;;;;;2.63;1.17;;;20.40;54.50;;;;;;6184943;23;20024;-74
2023/06/28 05:38:06;;;;;;;1.65;1.20;;;20.40;54.40;;;;;;6185219;23;19989;-74
2023/06/28 05:40:39;;;;;;;1.40;1.27;;;20.30;54.60;;;;;;6158623;23;20120;-74
2023/06/28 05:43:05;;;;;;;3.00;1.38;;;20.40;54.70;;;;;;6185453;23;20036;-74
2023/06/28 05:45:31;;;;;;;4.70;1.27;;;20.40;54.60;;;;;;6158593;23;19997;-74
2023/06/28 05:47:59;;;;;;;2.42;1.40;;;20.30;54.70;;;;;;6158576;23;20055;-74
2023/06/28 05:50:30;;;;;;;1.90;1.40;;;20.40;54.90;;;;;;6185000;23;20012;-74
2023/06/28 05:52:56;;;;;;;1.67;1.33;;;20.50;54.80;;;;;;6184608;23;20432;-74
2023/06/28 05:55:25;;;;;;;2.35;1.35;;;20.60;54.70;;;;;;6158513;23;19997;-74
2023/06/28 05:57:50;;;;;;;2.00;1.45;;;20.70;54.60;;;;;;6184758;23;19989;-74
2023/06/28 06:00:22;;;;;;;1.65;1.25;;;20.80;54.20;;;;;;6158075;23;20001;-74
2023/06/28 06:02:51;;;;;;;2.78;1.25;;;20.80;54.00;;;;;;6158234;23;20246;-74
2023/06/28 06:05:19;;;;;;;2.47;1.45;;;20.90;53.80;;;;;;6184334;23;20004;-74
2023/06/28 06:07:49;;;;;;;2.72;1.30;;;20.90;53.50;;;;;;6158165;23;20001;-74
2023/06/28 06:10:18;;;;;;;1.55;1.25;;;20.90;53.70;;;;;;6184874;23;20005;-74
2023/06/28 06:12:43;;;;;;;3.63;1.55;;;20.90;53.60;;;;;;6184561;23;20015;-74
2023/06/28 06:15:12;;;;;;;1.33;1.00;;;20.90;53.60;;;;;;6158073;23;20084;-74
2023/06/28 06:17:38;;;;;;;1.75;1.23;;;20.90;53.70;;;;;;6184402;23;19993;-74
2023/06/28 06:20:04;;;;;;;1.95;1.13;;;20.90;53.50;;;;;;6184688;23;20001;-74
2023/06/28 06:22:32;;;;;;;1.40;1.13;;;20.90;53.80;;;;;;6184793;23;20000;-74
2023/06/28 06:25:06;;;;;;;2.17;1.13;;;20.80;53.50;;;;;;6158252;23;20005;-74
2023/06/28 06:27:35;;;;;;;;;;;20.90;53.50;;;;;;6184760;23;20478;-74
2023/06/28 06:30:02;;;;;;;1.55;1.13;;;20.90;53.30;;;;;;6158147;23;19908;-74
2023/06/28 06:32:27;;;;;;;3.17;1.02;;;21.00;53.20;;;;;;6184712;23;20055;-74
2023/06/28 06:34:57;;;;;;;1.60;0.88;;;21.00;53.00;;;;;;6158100;23;19997;-73
2023/06/28 06:37:26;;;;;;;1.50;1.35;;;21.10;53.10;;;;;;6184576;23;20001;-75
2023/06/28 06:39:55;;;;;;;1.75;1.30;;;21.10;53.10;;;;;;6184624;23;20099;-74
2023/06/28 06:42:26;;;;;;;3.30;1.20;;;21.30;52.90;;;;;;6158122;23;20476;-74
2023/06/28 06:44:51;;;;;;;1.65;1.30;;;21.30;52.80;;;;;;6157186;23;20053;-74
2023/06/28 06:47:19;;;;;;;2.67;1.23;;;21.40;52.40;;;;;;6184240;23;19993;-75
2023/06/28 06:49:51;;;;;;;2.15;1.15;;;21.50;52.10;;;;;;6185230;23;20008;-75
2023/06/28 06:52:25;;;;;;;1.27;1.00;;;21.60;52.10;;;;;;6184745;23;20004;-74
2023/06/28 06:54:58;;;;;;;1.30;1.20;;;21.70;51.90;;;;;;6184380;23;20008;-74
2023/06/28 06:57:26;;;;;;;1.42;1.10;;;21.80;51.10;;;;;;6158380;23;20306;-74
2023/06/28 06:59:52;;;;;;;1.90;1.02;;;21.80;50.80;;;;;;6158161;23;20032;-74
2023/06/28 07:02:21;;;;;;;1.35;1.15;;;21.80;51.10;;;;;;6184516;23;20190;-74
2023/06/28 07:04:53;;;;;;;3.67;1.55;;;21.80;51.00;;;;;;6184527;23;20004;-75
2023/06/28 07:07:28;;;;;;;2.05;1.52;;;21.90;51.10;;;;;;6158367;23;20091;-74
2023/06/28 07:09:58;;;;;;;2.78;1.30;;;22.00;50.60;;;;;;6158190;23;20005;-74
2023/06/28 07:12:28;;;;;;;3.63;1.10;;;22.00;49.80;;;;;;6184808;23;19997;-75
2023/06/28 07:14:54;;;;;;;1.48;1.10;;;22.00;50.50;;;;;;6184614;23;20055;-74
2023/06/28 07:17:25;;;;;;;2.13;1.45;;;22.10;51.30;;;;;;6184830;23;20394;-75
2023/06/28 07:19:56;;;;;;;1.75;0.90;;;22.10;50.70;;;;;;6158541;23;20008;-75
2023/06/28 07:22:27;;;;;;;1.60;1.08;;;22.20;50.80;;;;;;6184425;23;20004;-74
2023/06/28 07:24:53;;;;;;;1.20;0.98;;;22.30;50.60;;;;;;6184667;23;20004;-74
2023/06/28 07:27:21;;;;;;;3.10;1.42;;;22.20;50.70;;;;;;6184221;23;20001;-75
2023/06/28 07:29:49;;;;;;;2.78;1.48;;;22.30;50.20;;;;;;6185917;23;20028;-75
2023/06/28 07:32:15;;;;;;;4.53;1.95;;;22.30;50.20;;;;;;6186195;23;20283;-75
2023/06/28 07:34:43;;;;;;;1.85;1.20;;;22.40;50.30;;;;;;6186334;23;19997;-75
2023/06/28 07:37:12;;;;;;;2.45;1.40;;;22.40;50.50;;;;;;6186365;23;20064;-75
2023/06/28 07:39:37;;;;;;;4.70;1.70;;;22.30;50.60;;;;;;6159874;23;20005;-75
2023/06/28 07:42:03;;;;;;;7.90;2.53;;;22.30;50.00;;;;;;6186371;23;20468;-74
2023/06/28 07:44:29;;;;;;;1.98;1.50;;;22.30;50.30;;;;;;6186373;23;20044;-75
2023/06/28 07:46:55;;;;;;;3.20;1.65;;;22.30;49.90;;;;;;6159965;23;20076;-75
2023/06/28 07:49:29;;;;;;;3.63;1.63;;;22.40;49.80;;;;;;6186377;23;20417;-74
2023/06/28 07:52:00;;;;;;;2.75;1.75;;;22.40;50.20;;;;;;6186708;23;20000;-74
2023/06/28 07:54:28;;;;;;;4.43;1.50;;;22.40;49.90;;;;;;6185828;23;19997;-75
2023/06/28 07:56:59;;;;;;;2.33;1.63;;;22.40;49.50;;;;;;6185869;23;19997;-74
2023/06/28 07:59:30;;;;;;;5.00;2.00;;;22.30;49.50;;;;;;6159688;23;20024;-74
2023/06/28 08:02:04;;;;;;;3.85;1.92;;;22.30;49.40;;;;;;6185717;23;20472;-75
2023/06/28 08:04:32;;;;;;;3.13;1.90;;;22.30;49.30;;;;;;6159706;23;20401;-74
2023/06/28 08:07:00;;;;;;;2.20;1.50;;;22.30;49.40;;;;;;6185980;23;19993;-75
2023/06/28 08:09:29;;;;;;;3.72;1.58;;;22.30;49.40;;;;;;6159250;23;20421;-74
2023/06/28 08:12:09;;;;;;;2.90;1.50;;;22.30;49.30;;;;;;6186063;23;19997;-75
2023/06/28 08:14:38;;;;;;;3.03;1.73;;;22.30;48.90;;;;;;6185988;23;20023;-75
2023/06/28 08:17:11;;;;;;;5.57;2.10;;;22.20;48.90;;;;;;6186650;23;20068;-75
2023/06/28 08:19:43;;;;;;;1.77;1.55;;;22.20;48.90;;;;;;6185784;23;20007;-75
2023/06/28 08:22:13;;;;;;;4.18;1.48;;;22.20;48.60;;;;;;6186367;23;20079;-75
2023/06/28 08:24:44;;;;;;;1.55;1.25;;;22.10;49.00;;;;;;6185592;23;20428;-74
2023/06/28 08:27:15;;;;;;;1.60;1.50;;;22.10;48.80;;;;;;6185722;23;19997;-74
2023/06/28 08:29:46;;;;;;;3.33;1.48;;;22.10;49.20;;;;;;6185499;23;20294;-74
2023/06/28 08:32:12;;;;;;;3.35;1.70;;;22.10;48.90;;;;;;6185564;23;20414;-74
2023/06/28 08:34:43;;;;;;;1.85;1.30;;;22.10;49.30;;;;;;6159329;23;20052;-74
2023/06/28 08:37:09;;;;;;;3.25;1.40;;;22.00;48.70;;;;;;6186124;23;20008;-73
2023/06/28 08:39:40;;;;;;;3.25;1.75;;;22.10;48.50;;;;;;6159015;23;20005;-74
2023/06/28 08:42:12;;;;;;;3.33;1.60;;;22.10;48.40;;;;;;6158874;23;20414;-74
2023/06/28 08:44:41;;;;;;;7.57;1.58;;;22.10;48.90;;;;;;6158961;23;19997;-73
2023/06/28 08:47:12;;;;;;;2.88;1.77;;;22.20;48.60;;;;;;6158842;23;20008;-73
2023/06/28 08:49:44;;;;;;;4.00;1.90;;;22.30;47.60;;;;;;6159057;23;20086;-74
2023/06/28 08:52:16;;;;;;;3.63;2.15;;;22.30;48.10;;;;;;6159212;23;20001;-74
2023/06/28 08:54:49;;;;;;;5.28;1.80;;;22.40;48.00;;;;;;6185563;23;19997;-74
2023/06/28 08:57:19;;;;;;;4.28;1.90;;;22.40;47.90;;;;;;6158919;23;19997;-74
2023/06/28 08:59:51;;;;;;;4.20;1.80;;;22.50;47.80;;;;;;6159028;23;20008;-74
2023/06/28 09:02:23;;;;;;;4.45;1.80;;;22.50;47.60;;;;;;6185515;23;19997;-74
2023/06/28 09:04:54;;;;;;;4.93;1.90;;;22.60;48.00;;;;;;6185320;23;19997;-74
2023/06/28 09:07:28;;;;;;;2.83;1.60;;;22.60;47.70;;;;;;6159372;23;20092;-74
2023/06/28 09:09:55;;;;;;;4.68;1.77;;;22.70;47.30;;;;;;6158938;23;20016;-74
2023/06/28 09:12:23;;;;;;;1.55;1.27;;;22.70;47.30;;;;;;6159027;23;19997;-74
2023/06/28 09:14:55;;;;;;;5.78;2.00;;;22.80;47.50;;;;;;6159219;23;20076;-74
2023/06/28 09:17:26;;;;;;;2.13;1.52;;;22.80;47.20;;;;;;6159019;23;20067;-74
2023/06/28 09:20:02;;;;;;;3.92;1.55;;;22.80;46.60;;;;;;6185710;23;20028;-73
2023/06/28 09:22:31;;;;;;;2.13;1.70;;;22.90;46.50;;;;;;6185433;23;19996;-74
2023/06/28 09:25:06;;;;;;;4.75;2.00;;;22.90;46.50;;;;;;6185182;23;20410;-73
2023/06/28 09:27:37;;;;;;;3.28;1.67;;;23.00;46.10;;;;;;6185239;23;19993;-74
2023/06/28 09:30:03;;;;;;;2.75;1.92;;;23.00;46.20;;;;;;6184714;23;20318;-73
2023/06/28 09:32:39;;;;;;;4.30;3.15;;;23.00;45.90;;;;;;6158482;23;20427;-74
2023/06/28 09:35:12;;;;;;;4.95;2.40;;;23.00;46.10;;;;;;6185172;23;20076;-74
2023/06/28 09:37:43;;;;;;;2.80;1.80;;;23.10;46.60;;;;;;6184970;23;19996;-74
2023/06/28 09:40:17;;;;;;;4.57;1.95;;;23.10;46.20;;;;;;6158526;23;20075;-74
2023/06/28 09:42:51;;;;;;;3.88;2.63;;;23.20;45.60;;;;;;6158872;23;20464;-74
2023/06/28 09:45:30;;;;;;;5.07;2.33;;;23.20;45.70;;;;;;6185287;23;20009;-74
2023/06/28 09:48:04;;;;;;;4.03;2.05;;;23.20;45.10;;;;;;6185295;23;20039;-73
2023/06/28 09:50:47;;;;;;;2.55;1.88;;;23.30;44.70;;;;;;6158647;23;20009;-74
2023/06/28 09:53:22;;;;;;;3.95;1.88;;;23.30;44.80;;;;;;6185056;23;20009;-73
2023/06/28 09:55:53;;;;;;;3.08;2.28;;;23.40;44.60;;;;;;6158319;23;19993;-74
2023/06/28 09:58:20;;;;;;;5.32;1.98;;;23.40;44.40;;;;;;6184771;23;19997;-73
2023/06/28 10:00:57;;;;;;;2.92;1.50;;;23.40;44.40;;;;;;6185201;23;20079;-74
2023/06/28 10:03:27;;;;;;;4.93;1.80;;;23.50;44.10;;;;;;6158401;23;20005;-74
2023/06/28 10:05:59;;;;;;;2.72;1.80;;;23.50;44.30;;;;;;6184074;23;20334;-75
2023/06/28 10:08:34;;;;;;;2.97;1.92;;;23.50;44.80;;;;;;6184007;23;20005;-74
2023/06/28 10:11:09;;;;;;;4.68;2.22;;;23.60;44.70;;;;;;6184727;23;20027;-74
2023/06/28 10:13:46;;;;;;;2.92;1.90;;;23.70;44.40;;;;;;6184626;23;20055;-73
2023/06/28 10:16:19;;;;;;;2.42;1.63;;;23.70;44.90;;;;;;6184903;23;20291;-73
2023/06/28 10:18:51;;;;;;;4.63;1.80;;;23.80;44.60;;;;;;6158769;23;20001;-73
2023/06/28 10:21:35;;;;;;;3.60;1.92;;;23.90;44.00;;;;;;6184614;23;19994;-73
2023/06/28 10:24:03;;;;;;;2.63;1.48;;;23.90;44.00;;;;;;6184702;23;20016;-73
2023/06/28 10:26:35;;;;;;;1.90;1.35;;;24.00;43.10;;;;;;6184706;23;20001;-73
2023/06/28 10:29:12;;;;;;;6.18;1.95;;;24.00;43.40;;;;;;6158276;23;20001;-73
2023/06/28 10:31:58;;;;;;;3.17;1.70;;;24.10;43.50;;;;;;6158267;23;20009;-73
2023/06/28 10:34:28;;;;;;;5.35;2.00;;;24.00;42.70;;;;;;6156772;23;20096;-74
2023/06/28 10:36:58;;;;;;;3.22;1.60;;;24.10;42.30;;;;;;6157980;23;20007;-73
2023/06/28 10:39:26;;;;;;;7.53;1.80;;;24.10;42.30;;;;;;6157646;23;20342;-73
2023/06/28 10:42:00;;;;;;;2.25;1.27;;;24.20;42.40;;;;;;6184452;23;19989;-72
2023/06/28 10:44:39;;;;;;;2.65;1.33;;;24.20;42.30;;;;;;6183928;23;20008;-73
2023/06/28 10:47:16;;;;;;;9.88;1.85;;;24.30;41.70;;;;;;6184225;23;19997;-69
2023/06/28 10:50:11;;;;;;;1.88;1.33;;;24.30;41.70;;;;;;6184328;23;20441;-73
2023/06/28 10:52:54;;;;;;;1.75;1.40;;;24.30;41.80;;;;;;6157885;23;19997;-68
2023/06/28 10:56:00;;;;;;;5.20;1.42;;;24.50;42.00;;;;;;6157361;23;20076;-72
2023/06/28 10:58:47;;;;;;;2.47;1.30;;;24.50;41.10;;;;;;6182731;23;20016;-72
2023/06/28 11:01:48;;;;;;;3.53;1.50;;;24.50;40.90;;;;;;6157728;23;20001;-72
2023/06/28 11:04:26;;;;;;;5.32;1.70;;;24.60;40.30;;;;;;6183988;23;19995;-72
2023/06/28 11:07:07;;;;;;;3.65;1.40;;;24.60;40.20;;;;;;6157709;23;19997;-72
2023/06/28 11:10:11;;;;;;;2.20;1.52;;;24.60;39.60;;;;;;6158759;23;19997;-72
2023/06/28 11:12:53;;;;;;;;;;;24.70;40.20;;;;;;6157190;23;20009;-72
2023/06/28 11:15:34;;;;;;;3.47;2.30;;;24.90;41.50;;;;;;6184422;23;19900;-72
2023/06/28 11:18:11;;;;;;;3.45;1.80;;;24.90;40.50;;;;;;6183736;23;20005;-71
2023/06/28 11:20:53;;;;;;;2.03;1.35;;;24.90;39.90;;;;;;6184143;23;19997;-72
2023/06/28 11:23:51;;;;;;;3.38;1.70;;;24.90;38.90;;;;;;6183679;23;20441;-72
2023/06/28 11:26:33;;;;;;;7.13;1.58;;;25.00;38.90;;;;;;6184964;23;20000;-72
2023/06/28 11:29:27;;;;;;;4.13;2.00;;;25.00;39.20;;;;;;6183981;23;20556;-72
2023/06/28 11:32:12;;;;;;;6.45;1.60;;;25.00;38.20;;;;;;6184432;23;20084;-72
2023/06/28 11:34:41;;;;;;;4.43;1.73;;;25.00;37.00;;;;;;6183983;23;20020;-72
2023/06/28 11:37:16;;;;;;;5.85;1.60;;;25.10;36.90;;;;;;6184142;23;20358;-72
2023/06/28 11:39:48;;;;;;;8.20;1.60;;;25.10;37.20;;;;;;6158393;23;20376;-72
2023/06/28 11:42:39;;;;;;;2.72;1.20;;;25.20;36.60;;;;;;6158049;23;20360;-72
2023/06/28 11:45:10;;;;;;;4.65;1.58;;;25.30;36.40;;;;;;6183655;23;20282;-72
2023/06/28 11:48:08;;;;;;;2.50;1.30;;;25.30;36.20;;;;;;6157614;23;20421;-72
2023/06/28 11:50:50;;;;;;;4.32;1.75;;;25.40;36.70;;;;;;6151963;23;20010;-72
2023/06/28 11:53:33;;;;;;;10.52;1.55;;;25.50;37.30;;;;;;6184063;23;20000;-72
2023/06/28 11:56:01;;;;;;;5.25;1.60;;;25.50;37.60;;;;;;6158085;23;20001;-72
2023/06/28 11:58:36;;;;;;;1.73;1.30;;;25.60;35.60;;;;;;6183779;23;20060;-73
2023/06/28 12:01:30;;;;;;;3.28;1.17;;;25.70;36.00;;;;;;6158848;23;20043;-73
2023/06/28 12:04:01;;;;;;;1.83;1.13;;;25.80;35.50;;;;;;6157290;23;19997;-72
2023/06/28 12:06:33;;;;;;;2.67;1.38;;;25.80;35.30;;;;;;6183722;23;19990;-72
2023/06/28 12:09:30;;;;;;;1.98;1.40;;;25.90;35.10;;;;;;6157566;23;19997;-72
2023/06/28 12:12:10;;;;;;;3.33;2.00;;;25.90;35.50;;;;;;6157525;23;20013;-73
2023/06/28 12:14:49;;;;;;;3.38;1.48;;;26.00;34.70;;;;;;6157428;23;20000;-72
2023/06/28 12:17:21;;;;;;;6.28;1.80;;;26.20;35.60;;;;;;6158787;23;19993;-73
2023/06/28 12:19:54;;;;;;;3.03;1.75;;;26.20;35.10;;;;;;6186153;23;19994;-72
2023/06/28 12:22:45;;;;;;;2.53;1.40;;;26.30;34.50;;;;;;6159199;23;20435;-72
2023/06/28 12:25:13;;;;;;;3.00;1.63;;;26.40;34.40;;;;;;6158108;23;20002;-72
2023/06/28 12:28:13;;;;;;;3.70;1.52;;;26.50;33.30;;;;;;6185479;23;20059;-72
2023/06/28 12:31:03;;;;;;;2.22;1.58;;;26.50;33.80;;;;;;6157988;23;20013;-72
2023/06/28 12:33:50;;;;;;;4.15;1.73;;;26.60;32.90;;;;;;6186086;23;20068;-72
2023/06/28 12:36:35;;;;;;;4.88;1.40;;;26.60;33.00;;;;;;6161438;23;19997;-72
2023/06/28 12:39:28;;;;;;;7.88;2.15;;;26.70;33.00;;;;;;6184923;23;20005;-72
2023/06/28 12:42:08;;;;;;;3.50;1.40;;;26.70;32.90;;;;;;6185227;23;19993;-72
2023/06/28 12:45:00;;;;;;;2.97;1.33;;;26.70;33.30;;;;;;6185253;23;20448;-72
2023/06/28 12:47:29;;;;;;;5.80;1.58;;;26.80;33.50;;;;;;6185322;23;19990;-71
2023/06/28 12:50:00;;;;;;;3.85;1.20;;;26.90;33.00;;;;;;6184997;23;20005;-71
2023/06/28 12:52:31;;;;;;;2.70;1.50;;;26.90;33.10;;;;;;6184911;23;20436;-72
2023/06/28 12:55:13;;;;;;;3.33;1.63;;;26.90;32.30;;;;;;6185276;23;19996;-72
2023/06/28 12:57:55;;;;;;;2.38;1.27;;;27.10;31.90;;;;;;6184809;23;20001;-72
2023/06/28 13:00:38;;;;;;;5.03;1.70;;;27.10;32.20;;;;;;6158553;23;20005;-72
2023/06/28 13:03:12;;;;;;;1.95;1.30;;;27.10;31.50;;;;;;6184857;23;20346;-71
2023/06/28 13:05:43;;;;;;;2.42;1.35;;;27.10;31.40;;;;;;6185245;23;20302;-71
2023/06/28 13:08:29;;;;;;;4.20;1.58;;;27.20;31.60;;;;;;6158826;23;20080;-71
2023/06/28 13:11:00;;;;;;;1.88;1.17;;;27.20;31.40;;;;;;6158701;23;20009;-71
2023/06/28 13:13:42;;;;;;;1.63;1.42;;;27.20;31.10;;;;;;6185166;23;20000;-71
2023/06/28 13:16:30;;;;;;;3.25;1.60;;;27.20;30.80;;;;;;6185271;23;20000;-72
2023/06/28 13:19:03;;;;;;;4.10;1.70;;;27.20;31.00;;;;;;6185206;23;19993;-72
2023/06/28 13:21:34;;;;;;;2.50;1.52;;;27.30;30.50;;;;;;6158597;23;20032;-71
2023/06/28 13:24:03;;;;;;;3.42;1.33;;;27.30;30.80;;;;;;6185067;23;20059;-71